createdAt,value
2023-02-27T00:00:56.749Z,0
2023-02-27T00:21:22.789Z,-0.1
2023-02-27T00:40:57.908Z,-0.1
2023-02-27T01:01:01.481Z,-0.2
2023-02-27T01:20:58.088Z,-0.1
2023-02-27T01:40:57.291Z,-0.1
2023-02-27T02:00:58.071Z,0
2023-02-27T02:20:57.907Z,-0.2
2023-02-27T02:40:57.592Z,-0.2
2023-02-27T03:00:58.743Z,0.1
2023-02-27T03:21:00.315Z,0
2023-02-27T03:40:57.867Z,-0.1
2023-02-27T04:01:01.836Z,0
2023-02-27T04:21:04.283Z,0
2023-02-27T04:40:57.539Z,-0.1
2023-02-27T05:01:25.736Z,-0.1
2023-02-27T05:20:58.655Z,-0.1
2023-02-27T05:41:00.164Z,-0.1
2023-02-27T06:00:59.086Z,-0.1
2023-02-27T06:20:57.319Z,-0.1
2023-02-27T06:41:32.372Z,0
2023-02-27T07:01:34.382Z,0.2
2023-02-27T07:21:31.836Z,0.2
2023-02-27T07:41:47.751Z,0.3
2023-02-27T08:01:28.274Z,0.4
2023-02-27T08:21:37.164Z,0.1
2023-02-27T08:41:28.969Z,0.1
2023-02-27T09:01:26.950Z,0
2023-02-27T09:21:25.060Z,0
2023-02-27T09:41:37.934Z,0.6
2023-02-27T10:01:25.339Z,0.6
2023-02-27T10:21:31.316Z,1.1
2023-02-27T10:41:25.291Z,1
2023-02-27T11:01:23.400Z,0.8
2023-02-27T11:21:32.206Z,1.5
2023-02-27T11:41:31.609Z,1.5
2023-02-27T12:01:28.519Z,1.4
2023-02-27T12:21:31.278Z,1.4
2023-02-27T12:41:37.570Z,0.7
2023-02-27T13:01:28.376Z,0.7
2023-02-27T13:21:31.756Z,1
2023-02-27T13:41:35.509Z,0.6
2023-02-27T14:01:29.334Z,0.1
2023-02-27T14:21:33.389Z,0
2023-02-27T14:41:31.212Z,-0.1
2023-02-27T15:01:29.139Z,0
2023-02-27T15:21:37.282Z,-0.2
2023-02-27T15:41:26.228Z,-0.2
2023-02-27T16:01:30.688Z,0.3
2023-02-27T16:21:38.309Z,-0.2
2023-02-27T16:41:26.125Z,-0.2
2023-02-27T17:01:00.490Z,0.4
2023-02-27T17:21:01.082Z,0.9
2023-02-27T17:40:57.988Z,0.9
2023-02-27T18:00:57.963Z,0.9
2023-02-27T18:20:58.471Z,0.8
2023-02-27T18:40:58.204Z,0.7
2023-02-27T19:01:02.052Z,0.6
2023-02-27T19:21:01.201Z,0.2
2023-02-27T19:40:58.999Z,0.3
2023-02-27T20:01:01.474Z,0.5
2023-02-27T20:20:57.973Z,0.4
2023-02-27T20:41:01.495Z,0.5
2023-02-27T21:00:57.661Z,0.5
2023-02-27T21:20:57.422Z,0.6
2023-02-27T21:40:59.895Z,-0.3
2023-02-27T22:01:00.360Z,0.1
2023-02-27T22:21:01.107Z,-0.5
2023-02-27T22:40:57.663Z,-0.5
2023-02-27T23:01:07.551Z,-0.3
2023-02-27T23:20:57.617Z,-0.7
2023-02-27T23:40:57.592Z,-0.7
